Time;durP1;ratioP1;P1;durP2;ratioP2;P2;SDS_P1;SDS_P2;PMS_P1;PMS_P2;Temp;Humidity;BMP_temperature;BMP_pressure;BME280_temperature;BME280_humidity;BME280_pressure;Samples;Min_cycle;Max_cycle;Signal;HPM_P1;HPM_P2
2022/12/06 00:02:00;;;;;;;5.90;5.40;;;;;;;3.10;100.00;96531.59;5032438;27;103844;-68
2022/12/06 00:04:27;;;;;;;6.73;5.50;;;;;;;3.06;100.00;96536.44;5030343;27;105063;-68
2022/12/06 00:07:01;;;;;;;5.93;5.33;;;;;;;3.13;100.00;96531.22;5032791;27;101793;-68
2022/12/06 00:09:37;;;;;;;7.67;5.90;;;;;;;3.12;100.00;96532.22;5032300;27;103448;-68
2022/12/06 00:12:08;;;;;;;6.00;5.50;;;;;;;3.08;100.00;96531.00;5030449;27;101925;-68
2022/12/06 00:14:37;;;;;;;6.47;5.77;;;;;;;3.06;100.00;96525.94;5028509;27;103056;-68
2022/12/06 00:17:11;;;;;;;7.23;5.40;;;;;;;3.05;100.00;96534.03;5033590;27;105303;-68
2022/12/06 00:19:46;;;;;;;6.53;5.53;;;;;;;2.98;100.00;96536.66;5030404;28;101853;-68
2022/12/06 00:22:16;;;;;;;7.47;5.87;;;;;;;2.94;100.00;96542.50;5030547;28;105453;-68
2022/12/06 00:24:58;;;;;;;5.93;5.43;;;;;;;2.88;100.00;96545.91;5031722;28;102836;-68
2022/12/06 00:27:29;;;;;;;6.47;5.37;;;;;;;2.95;100.00;96539.66;5031091;27;101939;-68
2022/12/06 00:29:58;;;;;;;7.23;6.20;;;;;;;2.93;100.00;96535.63;5030731;28;105168;-68
2022/12/06 00:32:31;;;;;;;6.57;5.70;;;;;;;2.97;100.00;96536.84;5031179;27;103426;-68
2022/12/06 00:35:04;;;;;;;13.77;5.70;;;;;;;2.95;100.00;96544.13;5030234;28;102011;-68
2022/12/06 00:37:33;;;;;;;6.30;5.80;;;;;;;3.00;100.00;96544.34;5033451;28;105494;-68
2022/12/06 00:40:02;;;;;;;6.43;5.80;;;;;;;3.12;100.00;96545.38;5030822;28;101983;-68
2022/12/06 00:42:39;;;;;;;6.63;5.77;;;;;;;3.05;100.00;96544.53;5029406;28;102371;-68
2022/12/06 00:45:12;;;;;;;6.67;5.50;;;;;;;3.13;100.00;96541.72;5030062;28;105631;-68
2022/12/06 00:47:46;;;;;;;6.67;5.97;;;;;;;3.10;100.00;96547.38;5030391;27;101860;-68
2022/12/06 00:50:25;;;;;;;7.03;5.63;;;;;;;3.05;100.00;96555.03;5031903;27;103890;-68
2022/12/06 00:52:54;;;;;;;6.17;5.57;;;;;;;3.12;100.00;96548.78;5030032;27;101811;-68
2022/12/06 00:55:26;;;;;;;5.73;5.23;;;;;;;3.12;100.00;96558.50;5031182;27;102204;-68
2022/12/06 00:57:57;;;;;;;6.03;5.43;;;;;;;3.13;100.00;96560.13;5031512;27;102312;-68
2022/12/06 01:00:35;;;;;;;6.10;5.60;;;;;;;3.12;100.00;96555.88;5033100;28;102788;-68
2022/12/06 01:03:12;;;;;;;5.80;5.20;;;;;;;3.11;100.00;96549.81;5031555;28;103912;-68
2022/12/06 01:05:44;;;;;;;5.60;4.97;;;;;;;3.13;100.00;96547.81;5031043;27;104159;-68
2022/12/06 01:08:14;;;;;;;5.57;4.93;;;;;;;3.15;100.00;96545.78;5031679;27;101685;-68
2022/12/06 01:10:54;;;;;;;5.70;5.20;;;;;;;3.09;100.00;96538.69;5028174;27;103084;-68
2022/12/06 01:13:25;;;;;;;6.23;4.87;;;;;;;3.14;100.00;96533.66;5028445;28;104181;-68
2022/12/06 01:15:59;;;;;;;5.03;4.63;;;;;;;3.13;100.00;96536.47;5028877;27;101971;-68
2022/12/06 01:18:29;;;;;;;5.03;4.60;;;;;;;3.24;100.00;96533.25;5029400;27;104231;-67
2022/12/06 01:21:08;;;;;;;5.23;4.83;;;;;;;3.16;100.00;96530.81;5028525;27;103677;-68
2022/12/06 01:23:37;;;;;;;5.83;5.30;;;;;;;3.08;100.00;96533.63;5030803;28;101968;-68
2022/12/06 01:26:20;;;;;;;4.93;4.53;;;;;;;3.18;100.00;96536.69;5028480;27;103856;-68
2022/12/06 01:28:49;;;;;;;6.30;5.70;;;;;;;3.08;100.00;96531.00;5026661;27;101997;-68
2022/12/06 01:31:30;;;;;;;5.97;5.37;;;;;;;3.04;100.00;96538.47;5029073;28;104206;-68
2022/12/06 01:33:59;;;;;;;7.33;6.00;;;;;;;3.07;100.00;96537.28;5028146;28;104088;-68
2022/12/06 01:36:30;;;;;;;5.97;5.43;;;;;;;3.10;100.00;96536.84;5028856;27;102139;-68
2022/12/06 01:39:05;;;;;;;6.93;6.23;;;;;;;3.08;100.00;96533.63;5028732;27;102673;-68
2022/12/06 01:41:37;;;;;;;6.77;6.07;;;;;;;3.06;100.00;96525.94;5030336;27;103747;-68
2022/12/06 01:44:11;;;;;;;7.40;6.60;;;;;;;3.07;100.00;96521.50;5031061;27;101661;-68
2022/12/06 01:46:47;;;;;;;8.07;7.27;;;;;;;3.01;100.00;96517.84;5033705;27;102475;-68
2022/12/06 01:49:30;;;;;;;7.93;7.07;;;;;;;3.03;100.00;96512.41;5030369;27;101866;-68
2022/12/06 01:52:10;;;;;;;11.03;7.90;;;;;;;2.94;100.00;96501.28;5031027;27;103617;-68
2022/12/06 01:54:42;;;;;;;9.03;8.13;;;;;;;2.92;100.00;96502.50;5029038;28;104048;-68
2022/12/06 01:57:17;;;;;;;9.20;8.13;;;;;;;2.85;100.00;96501.69;5031070;27;101845;-68
2022/12/06 01:59:49;;;;;;;10.40;8.53;;;;;;;2.78;100.00;96506.13;5030640;27;103334;-68
2022/12/06 02:02:18;;;;;;;9.27;8.17;;;;;;;2.80;100.00;96498.84;5029650;27;102661;-68
2022/12/06 02:04:51;;;;;;;9.77;8.30;;;;;;;2.76;100.00;96501.06;5029606;27;101954;-68
2022/12/06 02:07:35;;;;;;;8.90;7.93;;;;;;;2.78;100.00;96508.75;5030175;27;101903;-68
2022/12/06 02:10:06;;;;;;;8.20;7.30;;;;;;;2.80;100.00;96509.34;5032623;27;102759;-68
2022/12/06 02:12:38;;;;;;;9.47;7.67;;;;;;;2.79;100.00;96498.03;5029163;28;105263;-68
2022/12/06 02:15:09;;;;;;;8.30;7.40;;;;;;;2.82;100.00;96502.06;5025960;27;102796;-68
2022/12/06 02:17:50;;;;;;;9.70;7.30;;;;;;;2.86;100.00;96501.50;5029936;27;102210;-68
2022/12/06 02:20:35;;;;;;;7.80;6.90;;;;;;;2.87;100.00;96500.47;5029890;27;102771;-68
2022/12/06 02:23:38;;;;;;;6.97;6.20;;;;;;;2.91;100.00;96495.63;5029670;27;102564;-68
2022/12/06 02:26:32;;;;;;;6.57;5.97;;;;;;;2.94;100.00;96487.34;5030377;28;102116;-68
2022/12/06 02:29:37;;;;;;;6.73;6.07;;;;;;;2.87;100.00;96489.16;5030308;27;103420;-68
2022/12/06 02:32:14;;;;;;;6.23;5.63;;;;;;;2.88;100.00;96481.06;5030005;28;101722;-68
2022/12/06 02:34:55;;;;;;;6.23;5.57;;;;;;;2.85;100.00;96483.31;5033839;27;101679;-68
2022/12/06 02:37:32;;;;;;;6.13;5.33;;;;;;;2.88;100.00;96488.13;5024859;28;105301;-68
2022/12/06 02:40:07;;;;;;;6.20;5.60;;;;;;;2.85;100.00;96478.84;5029978;27;101685;-68
2022/12/06 02:42:48;;;;;;;5.70;5.20;;;;;;;2.92;100.00;96470.97;5028163;28;105415;-68
2022/12/06 02:45:24;;;;;;;6.20;5.40;;;;;;;2.86;100.00;96472.59;5029638;27;102775;-68
2022/12/06 02:48:09;;;;;;;6.03;5.20;;;;;;;2.94;100.00;96461.88;5013465;28;101971;-68
2022/12/06 02:50:41;;;;;;;6.10;5.50;;;;;;;2.91;100.00;96461.47;5030251;28;102396;-68
2022/12/06 02:53:17;;;;;;;6.63;5.93;;;;;;;2.86;100.00;96456.03;5026585;27;103888;-68
2022/12/06 02:55:49;;;;;;;6.53;5.67;;;;;;;2.85;100.00;96459.66;5032035;28;101919;-68
2022/12/06 02:58:22;;;;;;;6.70;6.00;;;;;;;2.95;100.00;96460.88;5028947;27;104885;-68
2022/12/06 03:01:04;;;;;;;6.20;5.60;;;;;;;2.83;100.00;96461.66;5027253;28;101994;-68
2022/12/06 03:04:33;;;;;;;6.30;5.70;;;;;;;2.77;100.00;96462.47;5029337;27;104132;-68
2022/12/06 03:07:35;;;;;;;5.93;5.43;;;;;;;2.75;100.00;96457.44;4967423;28;102752;-68
2022/12/06 03:10:26;;;;;;;7.67;5.20;;;;;;;2.85;100.00;96457.03;4951090;28;102008;-68
2022/12/06 03:13:05;;;;;;;7.40;5.70;;;;;;;2.80;100.00;96451.59;4968083;28;101733;-68
2022/12/06 03:15:51;;;;;;;5.93;5.43;;;;;;;2.81;100.00;96447.94;4967174;28;103281;-68
2022/12/06 03:18:32;;;;;;;7.53;6.00;;;;;;;2.80;100.00;96454.19;4967878;28;101973;-68
2022/12/06 03:21:09;;;;;;;6.50;5.90;;;;;;;2.83;100.00;96453.78;4970620;28;102828;-68
2022/12/06 03:23:43;;;;;;;7.47;6.23;;;;;;;2.92;100.00;96447.34;4967597;28;101834;-68
2022/12/06 03:26:16;;;;;;;6.97;6.27;;;;;;;2.85;100.00;96441.28;4967330;28;102427;-68
2022/12/06 03:28:50;;;;;;;7.57;6.37;;;;;;;2.84;100.00;96442.31;4966785;28;102617;-68
2022/12/06 03:31:21;;;;;;;7.53;6.43;;;;;;;2.88;100.00;96444.31;4962571;28;101836;-68
2022/12/06 03:33:58;;;;;;;7.30;6.60;;;;;;;2.79;100.00;96447.34;4950889;28;102671;-68
2022/12/06 03:36:36;;;;;;;7.77;6.87;;;;;;;2.81;100.00;96438.25;4970208;28;104068;-68
2022/12/06 03:39:08;;;;;;;9.37;7.20;;;;;;;2.82;100.00;96437.25;5029053;27;101853;-68
2022/12/06 03:41:40;;;;;;;8.00;7.17;;;;;;;2.93;100.00;96446.31;5029473;28;103593;-68
2022/12/06 03:44:13;;;;;;;8.30;7.00;;;;;;;2.91;100.00;96436.03;5030429;27;103086;-68
2022/12/06 03:46:48;;;;;;;8.43;7.63;;;;;;;2.92;100.00;96432.41;5024734;28;105619;-68
2022/12/06 03:49:27;;;;;;;8.50;7.60;;;;;;;2.88;100.00;96436.44;5027401;28;105857;-68
2022/12/06 03:52:03;;;;;;;8.00;7.20;;;;;;;2.91;100.00;96432.59;5029789;27;101708;-68
2022/12/06 03:54:37;;;;;;;8.40;7.43;;;;;;;2.90;100.00;96437.03;5032652;27;102491;-68
2022/12/06 03:57:14;;;;;;;8.80;7.90;;;;;;;2.91;100.00;96432.59;5031288;27;103794;-68
2022/12/06 03:59:46;;;;;;;8.33;7.43;;;;;;;2.96;100.00;96430.97;5033066;27;101754;-68
2022/12/06 04:02:18;;;;;;;7.90;7.10;;;;;;;2.88;100.00;96433.00;5032368;27;103572;-68
2022/12/06 04:04:54;;;;;;;8.30;7.33;;;;;;;2.93;100.00;96430.56;5031484;28;103825;-68
2022/12/06 04:07:26;;;;;;;9.00;7.77;;;;;;;2.95;100.00;96431.19;5033537;28;102012;-68
2022/12/06 04:10:01;;;;;;;8.47;7.33;;;;;;;2.95;100.00;96426.72;5030175;28;103585;-68
2022/12/06 04:15:25;;;;;;;8.10;7.20;;;;;;;2.96;100.00;96430.19;4982380;28;105149;-68
2022/12/06 04:18:12;;;;;;;9.83;7.77;;;;;;;2.92;100.00;96424.53;5030022;28;105379;-68
2022/12/06 04:23:52;;;;;;;8.67;7.77;;;;;;;2.86;100.00;96425.34;5032243;28;102959;-68
2022/12/06 04:26:26;;;;;;;9.17;8.23;;;;;;;2.84;100.00;96421.28;5031935;28;102793;-68
2022/12/06 04:40:19;;;;;;;13.53;10.13;;;;;;;2.91;100.00;96416.84;5028741;28;104669;-68
2022/12/06 04:45:38;;;;;;;13.30;9.93;;;;;;;2.85;100.00;96417.66;5029690;28;105036;-68
2022/12/06 04:48:06;;;;;;;12.97;10.80;;;;;;;2.79;100.00;96418.47;5025532;28;105611;-68
2022/12/06 04:50:38;;;;;;;14.97;11.60;;;;;;;2.84;100.00;96416.03;5030605;27;101845;-68
2022/12/06 04:53:07;;;;;;;19.53;16.73;;;;;;;2.76;100.00;96413.59;5030506;27;104030;-68
2022/12/06 04:55:45;;;;;;;15.57;12.17;;;;;;;2.79;100.00;96408.75;5033436;27;101860;-68
2022/12/06 04:58:16;;;;;;;15.27;11.20;;;;;;;2.77;100.00;96412.59;5028106;28;104857;-68
2022/12/06 05:00:55;;;;;;;14.97;10.70;;;;;;;2.75;100.00;96412.81;5030436;27;102872;-68
2022/12/06 05:03:29;;;;;;;12.80;10.93;;;;;;;2.77;100.00;96404.69;5027525;27;101884;-68
2022/12/06 05:06:00;;;;;;;14.37;10.80;;;;;;;2.75;100.00;96412.81;5029021;28;105413;-68
2022/12/06 05:08:30;;;;;;;12.37;10.37;;;;;;;2.69;100.00;96410.16;5028437;28;103589;-68
2022/12/06 05:11:02;;;;;;;12.93;10.13;;;;;;;2.60;100.00;96408.72;5030558;28;102139;-68
2022/12/06 05:13:32;;;;;;;12.73;9.87;;;;;;;2.55;100.00;96421.66;5030446;27;102326;-68
2022/12/06 05:16:08;;;;;;;16.30;12.03;;;;;;;2.58;100.00;96421.25;5030149;28;105686;-68
2022/12/06 05:21:23;;;;;;;14.20;11.17;;;;;;;2.55;100.00;96422.47;5029960;28;102963;-68
2022/12/06 05:23:54;;;;;;;14.90;11.60;;;;;;;2.51;100.00;96423.88;5029060;27;102162;-68
2022/12/06 05:26:28;;;;;;;15.87;12.30;;;;;;;2.51;100.00;96428.31;5029492;27;103773;-68
2022/12/06 05:29:00;;;;;;;16.50;12.33;;;;;;;2.54;100.00;96425.28;5029673;27;102689;-68
2022/12/06 05:31:32;;;;;;;13.50;11.30;;;;;;;2.47;100.00;96425.25;5030399;28;101721;-68
2022/12/06 05:34:00;;;;;;;14.93;10.73;;;;;;;2.57;100.00;96422.28;5028668;28;104754;-68
2022/12/06 05:36:33;;;;;;;14.63;10.67;;;;;;;2.54;100.00;96420.84;5029138;27;102594;-68
2022/12/06 05:39:02;;;;;;;14.53;11.73;;;;;;;2.60;100.00;96421.84;5032110;28;102191;-68
2022/12/06 05:41:32;;;;;;;23.50;18.50;;;;;;;2.62;100.00;96425.91;5028097;28;105709;-68
2022/12/06 05:44:04;;;;;;;14.37;11.23;;;;;;;2.58;100.00;96426.50;5030074;27;101761;-68
2022/12/06 05:46:31;;;;;;;14.67;10.23;;;;;;;2.67;100.00;96420.88;5028743;28;105446;-68
2022/12/06 05:48:59;;;;;;;16.77;13.63;;;;;;;2.63;100.00;96417.00;5027978;28;105905;-68
2022/12/06 05:51:29;;;;;;;14.47;10.97;;;;;;;2.71;100.00;96421.25;5029758;27;101925;-68
2022/12/06 05:54:02;;;;;;;13.87;10.50;;;;;;;2.64;100.00;96415.22;5028687;28;106244;-68
2022/12/06 05:56:34;;;;;;;13.70;10.80;;;;;;;2.62;100.00;96412.78;5029692;27;102563;-68
2022/12/06 05:59:03;;;;;;;13.20;11.23;;;;;;;2.64;100.00;96404.72;5029852;27;101798;-68
2022/12/06 06:01:42;;;;;;;15.37;11.53;;;;;;;2.61;100.00;96410.34;5032142;27;102836;-67
2022/12/06 06:04:11;;;;;;;14.03;10.97;;;;;;;2.59;100.00;96415.00;5027818;28;101856;-68
2022/12/06 06:06:39;;;;;;;14.33;10.10;;;;;;;2.64;100.00;96409.97;5029595;28;102855;-68
2022/12/06 06:09:07;;;;;;;16.53;12.13;;;;;;;2.68;100.00;96416.44;5028774;28;103657;-68
2022/12/06 06:11:44;;;;;;;14.73;11.60;;;;;;;2.61;100.00;96424.28;5029309;28;101880;-68
2022/12/06 06:14:15;;;;;;;15.17;11.13;;;;;;;2.61;100.00;96423.47;5029525;28;102357;-68
2022/12/06 06:16:45;;;;;;;17.20;11.47;;;;;;;2.55;100.00;96416.41;5025545;27;105637;-68
2022/12/06 06:19:16;;;;;;;16.73;11.50;;;;;;;2.58;100.00;96416.00;5028075;27;102489;-68
2022/12/06 06:21:46;;;;;;;39.40;22.33;;;;;;;2.64;100.00;96418.66;5029354;28;103559;-68
2022/12/06 06:24:14;;;;;;;19.67;12.90;;;;;;;2.64;100.00;96413.41;5032441;28;103064;-68
2022/12/06 06:27:01;;;;;;;23.30;14.50;;;;;;;2.63;100.00;96414.38;5027431;28;104702;-68
2022/12/06 06:29:31;;;;;;;49.23;22.63;;;;;;;2.69;100.00;96420.66;5027364;28;105415;-68
2022/12/06 06:32:02;;;;;;;122.33;43.67;;;;;;;2.60;100.00;96419.22;5029138;27;101709;-68
2022/12/06 06:34:32;;;;;;;39.73;20.20;;;;;;;2.62;100.00;96418.03;5028196;27;103670;-68
2022/12/06 06:37:12;;;;;;;120.63;42.97;;;;;;;2.56;100.00;96418.81;5028016;27;103166;-68
2022/12/06 06:39:43;;;;;;;107.63;39.43;;;;;;;2.57;100.00;96417.81;5024961;28;102130;-68
2022/12/06 06:42:16;;;;;;;76.23;31.73;;;;;;;2.62;100.00;96425.13;5027388;28;105451;-68
2022/12/06 06:44:47;;;;;;;15.17;11.67;;;;;;;2.51;100.00;96421.25;5028472;28;104258;-68
2022/12/06 06:47:18;;;;;;;33.23;22.40;;;;;;;2.41;100.00;96425.28;5032422;27;101881;-68
2022/12/06 06:49:50;;;;;;;25.30;18.17;;;;;;;2.34;100.00;96441.00;5028314;27;103707;-68
2022/12/06 06:52:21;;;;;;;27.93;19.60;;;;;;;2.38;100.00;96430.91;5028788;28;101839;-68
2022/12/06 06:54:52;;;;;;;31.50;20.60;;;;;;;2.27;100.00;96429.69;5029152;27;102306;-68
2022/12/06 06:57:25;;;;;;;20.00;15.53;;;;;;;2.29;100.00;96426.88;5027483;28;104197;-68
2022/12/06 06:59:57;;;;;;;13.50;11.67;;;;;;;2.22;100.00;96429.47;5025222;28;101936;-69
2022/12/06 07:02:28;;;;;;;13.27;9.60;;;;;;;2.18;100.00;96424.81;5033608;27;103437;-69
2022/12/06 07:05:03;;;;;;;14.03;10.97;;;;;;;2.18;100.00;96425.59;5040597;27;105860;-69
2022/12/06 07:07:32;;;;;;;16.93;13.53;;;;;;;2.03;100.00;96426.78;5041008;27;102671;-69
2022/12/06 07:10:04;;;;;;;13.43;10.80;;;;;;;2.08;100.00;96425.16;5036573;27;105685;-69
2022/12/06 07:12:42;;;;;;;14.20;11.33;;;;;;;2.04;100.00;96433.63;5012470;27;101673;-69
2022/12/06 07:15:11;;;;;;;12.80;10.87;;;;;;;2.05;100.00;96430.81;5026313;28;105511;-69
2022/12/06 07:17:42;;;;;;;22.37;18.73;;;;;;;2.08;100.00;96435.66;5029041;27;105341;-69
2022/12/06 07:20:10;;;;;;;15.10;11.57;;;;;;;2.14;100.00;96428.84;5039327;27;102221;-69
2022/12/06 07:22:40;;;;;;;16.47;11.63;;;;;;;2.13;100.00;96437.72;5008954;27;103810;-69
2022/12/06 07:25:12;;;;;;;13.87;10.83;;;;;;;2.06;100.00;96437.69;5022020;27;105645;-69
2022/12/06 07:27:56;;;;;;;14.03;11.27;;;;;;;2.18;100.00;96445.81;5021425;27;102804;-69
2022/12/06 07:30:28;;;;;;;11.57;9.47;;;;;;;2.19;100.00;96436.91;5034080;27;102500;-69
2022/12/06 07:33:00;;;;;;;12.23;9.60;;;;;;;2.20;100.00;96430.66;5030059;28;101830;-69
2022/12/06 07:35:30;;;;;;;10.97;9.37;;;;;;;2.20;100.00;96433.28;5022316;27;105444;-69
2022/12/06 07:38:00;;;;;;;11.73;9.40;;;;;;;2.27;100.00;96427.06;5025496;28;105448;-69
2022/12/06 07:40:30;;;;;;;11.90;8.87;;;;;;;2.23;100.00;96427.63;5012415;28;102048;-69
2022/12/06 07:45:52;;;;;;;11.27;8.10;;;;;;;2.36;100.00;96427.69;5010328;28;106052;-69
2022/12/06 07:48:23;;;;;;;9.07;8.13;;;;;;;2.51;100.00;96438.81;5010900;28;101827;-69
2022/12/06 07:50:56;;;;;;;9.27;7.77;;;;;;;2.52;100.00;96438.59;5011288;28;104665;-69
2022/12/06 07:53:27;;;;;;;10.00;8.40;;;;;;;2.55;100.00;96442.66;5015386;28;102542;-69
2022/12/06 07:56:14;;;;;;;11.23;9.00;;;;;;;2.66;100.00;96444.69;5011958;28;103904;-69
2022/12/06 08:01:42;;;;;;;12.23;8.97;;;;;;;2.93;100.00;96436.63;5011730;28;101753;-69
2022/12/06 08:04:14;;;;;;;8.63;7.63;;;;;;;2.97;100.00;96434.41;5010457;28;104711;-69
2022/12/06 08:06:45;;;;;;;10.43;8.40;;;;;;;3.06;100.00;96435.84;5010955;28;103028;-69
2022/12/06 08:09:14;;;;;;;9.23;6.87;;;;;;;3.10;100.00;96432.59;5010676;28;101894;-69
2022/12/06 08:11:47;;;;;;;8.07;6.90;;;;;;;3.15;100.00;96437.22;5011827;28;102412;-69
2022/12/06 08:14:18;;;;;;;10.43;7.17;;;;;;;3.33;100.00;96426.94;5026641;28;104633;-69
2022/12/06 08:16:51;;;;;;;9.60;6.80;;;;;;;3.39;100.00;96436.63;5015276;28;101711;-69
2022/12/06 08:19:23;;;;;;;9.83;6.67;;;;;;;3.44;100.00;96437.59;5011295;28;102608;-69
2022/12/06 08:21:57;;;;;;;7.37;6.67;;;;;;;3.43;100.00;96430.75;5011782;28;101753;-69
2022/12/06 08:24:29;;;;;;;7.23;6.53;;;;;;;3.51;100.00;96434.97;5010193;28;105237;-69
2022/12/06 08:27:05;;;;;;;8.10;6.90;;;;;;;3.40;100.00;96431.16;5011347;28;103062;-69
2022/12/06 08:29:45;;;;;;;8.63;7.47;;;;;;;3.58;100.00;96433.13;5011371;28;102322;-69
2022/12/06 08:32:14;;;;;;;22.83;12.73;;;;;;;3.72;100.00;96430.25;5012139;28;102592;-69
2022/12/06 08:34:46;;;;;;;16.83;9.47;;;;;;;3.70;100.00;96429.66;5008891;28;103849;-69
2022/12/06 08:37:19;;;;;;;63.33;21.80;;;;;;;3.78;100.00;96428.63;5011366;28;102698;-69
2022/12/06 08:39:59;;;;;;;29.73;14.10;;;;;;;3.97;100.00;96425.94;5010699;28;106706;-69
2022/12/06 08:42:31;;;;;;;6.30;5.67;;;;;;;3.90;100.00;96429.59;5010453;28;102365;-69
2022/12/06 08:45:09;;;;;;;10.27;6.17;;;;;;;3.78;100.00;96426.00;5009677;28;105142;-68
2022/12/06 08:50:23;;;;;;;6.03;5.43;;;;;;;3.96;100.00;96434.84;5030329;28;101807;-70
2022/12/06 08:52:55;;;;;;;5.77;5.20;;;;;;;4.06;100.00;96432.59;5029599;27;104407;-70
2022/12/06 08:55:25;;;;;;;5.33;4.83;;;;;;;4.21;100.00;96434.94;5030204;28;103756;-63
2022/12/06 08:57:55;;;;;;;6.13;5.50;;;;;;;4.26;100.00;96422.75;5027331;28;102174;-70
2022/12/06 09:00:27;;;;;;;7.90;7.10;;;;;;;4.39;100.00;96427.16;5029516;27;105270;-69
2022/12/06 09:03:01;;;;;;;4.80;4.30;;;;;;;4.29;100.00;96424.16;5032594;28;105640;-69
2022/12/06 09:05:31;;;;;;;5.03;4.60;;;;;;;4.19;100.00;96436.97;5030422;27;102576;-69
2022/12/06 09:08:04;;;;;;;5.80;5.27;;;;;;;4.39;100.00;96440.31;5030517;27;104095;-70
2022/12/06 09:10:46;;;;;;;5.67;4.53;;;;;;;4.48;100.00;96433.81;5029270;28;102252;-68
2022/12/06 09:13:15;;;;;;;5.50;5.00;;;;;;;4.44;100.00;96437.88;5025706;28;105360;-67
2022/12/06 09:15:48;;;;;;;5.00;4.60;;;;;;;4.50;100.00;96442.28;5029700;27;102967;-67
2022/12/06 09:18:23;;;;;;;5.03;4.53;;;;;;;4.57;100.00;96437.78;5028976;28;101833;-69
2022/12/06 09:20:55;;;;;;;4.83;4.30;;;;;;;4.62;100.00;96440.59;5013799;28;105658;-67
2022/12/06 09:23:35;;;;;;;4.40;4.00;;;;;;;4.37;100.00;96439.72;5033054;27;104676;-67
2022/12/06 09:26:08;;;;;;;4.40;4.00;;;;;;;4.58;100.00;96440.22;5029294;28;104518;-68
2022/12/06 09:28:44;;;;;;;4.40;4.00;;;;;;;4.68;100.00;96440.56;5028357;27;105013;-68
2022/12/06 09:31:17;;;;;;;4.33;3.93;;;;;;;4.60;100.00;96440.00;5030153;27;101852;-68
2022/12/06 09:33:53;;;;;;;4.73;4.17;;;;;;;4.69;100.00;96441.38;5029120;27;104915;-63
